METAR stanice u blizini

 

LYBE - Beograd / Surčin, Srbija
Ažurirano: 06/07/2020 10:00
Vedro
Vedro
 Pravac vetra varies
Vetar: varies 6 km/h
Temperatura: 27°C
Heat Index: 27°C
Tačka rose: 15°C
Vlažnost: 48%
Pritisak: 1012 hPa
Pregled: Vedro
Vidljivost: greater than 10 km
2020/07/06 08:00 LYBE 060800Z VRB03KT CAVOK 27/15 Q1012 NOSIG
LYBT - Beograd / Batajnica, Srbija
Ažurirano: 06/07/2020 10:00
Vedro
Vedro
 Pravac vetra varies
Vetar: varies 4 km/h
Temperatura: 26°C
Tačka rose: 15°C
Vlažnost: 51%
Pritisak: 1011 hPa
Pregled: Vedro
Vidljivost: greater than 10 km
2020/07/06 08:00 LYBT 060800Z VRB02KT CAVOK 26/15 Q1011 NOSIG
LYVR - Vršac, Srbija
Ažurirano: 06/07/2020 10:00
Few Clouds
Few Clouds
 Pravac vetra varies
Vetar: varies 2 km/h
Temperatura: 27°C
Heat Index: 28°C
Tačka rose: 18°C
Vlažnost: 58%
Pritisak: 1011 hPa
Oblaci: Few Clouds
Vidljivost: 10 km
Cloud details: Few Clouds 1219 m
2020/07/06 08:00 LYVR 060800Z VRB01KT 9999 FEW040 27/18 Q1011
 
LYKV - Lađevci, Srbija
Ažurirano: 06/07/2020 10:00
Mostly Cloudy
Mostly Cloudy
 Pravac vetra varies
Vetar: varies 4 km/h
Temperatura: 24°C
Tačka rose: 18°C
Vlažnost: 69%
Pritisak: 1012 hPa
Oblaci: Mostly Cloudy
Vidljivost: 10 km
Cloud details: Mostly Cloudy 2134 m
2020/07/06 08:00 LYKV 060800Z VRB02KT 9999 BKN070 24/18 Q1012 NOSIG
LYNI - Niš, Srbija
Ažurirano: 06/07/2020 10:00
Vedro
Vedro
 Pravac vetra SSZ
Vetar: SSZ 20 km/h
Temperatura: 24°C
Tačka rose: 17°C
Vlažnost: 65%
Pritisak: 1011 hPa
Pregled: Vedro
Vidljivost: greater than 10 km
2020/07/06 08:00 LYNI 060800Z 33011KT 300V360 CAVOK 24/17 Q1011 NOSIG
BKPR - Priština, Srbija
Ažurirano: 06/07/2020 10:00
Partly Cloudy
Partly Cloudy
 Pravac vetra SSI
Vetar: SSI 24 km/h
Temperatura: 25°C
Tačka rose: 15°C
Vlažnost: 54%
Pritisak: 1012 hPa
Oblaci: Partly Cloudy
Vidljivost: 10 km
Cloud details: Few Clouds 1219 m
Partly Cloudy 5486 m
2020/07/06 08:00 BKPR 060800Z 03013KT 9999 FEW040 SCT180 25/15 Q1012 NOSIG
 
LHPP - Pecs / Pogany, Hungary
Ažurirano: 06/07/2020 09:45
Vedro
Vedro
 Pravac vetra S
Vetar: S 6 km/h
Temperatura: 29°C
Heat Index: 29°C
Tačka rose: 15°C
Vlažnost: 43%
Pritisak: 1012 hPa
Pregled: Vedro
Vidljivost: greater than 10 km
2020/07/06 07:45 LHPP 060745Z 01003KT CAVOK 29/15 Q1012
LHUD - Szeged, Hungary
Ažurirano: 04/07/2019 01:45
NOT Current
Vedro
Vedro
 Pravac vetra S
Vetar: S 7 km/h
Temperatura: 18°C
Tačka rose: 13°C
Vlažnost: 73%
Pritisak: 1019 hPa
Pregled: Vedro
Vidljivost: greater than 10 km
2019/07/03 23:45 LHUD 032345Z 35004KT CAVOK 18/13 Q1019
LRTR - Timisoara, Romania
Ažurirano: 06/07/2020 10:00
Vedro
Vedro
 Pravac vetra varies
Vetar: varies 4 km/h
Temperatura: 28°C
Heat Index: 29°C
Tačka rose: 19°C
Vlažnost: 58%
Pritisak: 1011 hPa
Pregled: Vedro
Vidljivost: greater than 10 km
2020/07/06 08:00 LRTR 060800Z VRB02KT CAVOK 28/19 Q1011
 
LRCV - Craiova, Romania
Ažurirano: 06/07/2020 10:00
Vedro
Vedro
 Pravac vetra JI
Vetar: JI 13 km/h
Temperatura: 27°C
Heat Index: 28°C
Tačka rose: 17°C
Vlažnost: 54%
Pritisak: 1011 hPa
Pregled: Vedro
Vidljivost: greater than 10 km
2020/07/06 08:00 LRCV 060800Z 13007KT 100V170 CAVOK 27/17 Q1011
LBSF - Sofia, Bulgaria
Ažurirano: 06/07/2020 10:00
Partly Cloudy
Partly Cloudy
 Pravac vetra IJI
Vetar: IJI 15 km/h
Temperatura: 26°C
Tačka rose: 17°C
Vlažnost: 58%
Pritisak: 1011 hPa
Oblaci: Partly Cloudy
Vidljivost: 10 km
Cloud details: Partly Cloudy 1006 m
2020/07/06 08:00 LBSF 060800Z 11008KT 9999 SCT033 26/17 Q1011 NOSIG
LWSK - Skoplje, Makedonija
Ažurirano: 06/07/2020 10:00
Vedro
Vedro
 Pravac vetra Z
Vetar: Z 9 km/h
Temperatura: 28°C
Heat Index: 28°C
Tačka rose: 16°C
Vlažnost: 48%
Pritisak: 1009 hPa
Pregled: Vedro
Vidljivost: greater than 10 km
2020/07/06 08:00 LWSK 060800Z 26005KT 220V330 CAVOK 28/16 Q1009 NOSIG
 
LYPG - Podgorica, Crna Gora
Ažurirano: 06/07/2020 10:00
Partly Cloudy
Partly Cloudy
 Pravac vetra SSI
Vetar: SSI 20 km/h
Temperatura: 29°C
Tačka rose: 13°C
Vlažnost: 37%
Pritisak: 1008 hPa
Oblaci: Partly Cloudy
Vidljivost: 10 km
Cloud details: Partly Cloudy 3048 m
2020/07/06 08:00 LYPG 060800Z 02011KT 9999 SCT100 29/13 Q1008 NOSIG
LQSA - Sarajevo, Bosna i Hercegovina
Ažurirano: 06/07/2020 10:00
Few Clouds
Few Clouds
 Pravac vetra varies
Vetar: varies 4 km/h
Temperatura: 21°C
Tačka rose: 16°C
Vlažnost: 73%
Pritisak: 1014 hPa
Oblaci: Few Clouds
Vidljivost: 10 km
Cloud details: Few Clouds 1524 m
2020/07/06 08:00 LQSA 060800Z VRB02KT 9999 FEW050 21/16 Q1014
LDOS - Osijek, Hrvatksa
Ažurirano: 06/07/2020 10:00
Vedro
Vedro
 Pravac vetra varies
Vetar: varies 4 km/h
Temperatura: 26°C
Tačka rose: 16°C
Vlažnost: 54%
Pritisak: 1011 hPa
Pregled: Vedro
Vidljivost: greater than 10 km
2020/07/06 08:00 LDOS 060800Z VRB02KT CAVOK 26/16 Q1011